createdAt,value
2023-04-25T00:01:49.483Z,100540.22
2023-04-25T00:04:16.888Z,100543.19
2023-04-25T00:06:43.504Z,100542.69
2023-04-25T00:09:10.937Z,100543.19
2023-04-25T00:11:39.016Z,100540.47
2023-04-25T00:14:05.819Z,100541.31
2023-04-25T00:16:34.825Z,100544.03
2023-04-25T00:19:03.313Z,100535.91
2023-04-25T00:21:29.837Z,100542.94
2023-04-25T00:23:56.911Z,100537.69
2023-04-25T00:26:23.307Z,100537.91
2023-04-25T00:28:49.742Z,100531.56
2023-04-25T00:31:16.127Z,100552.66
2023-04-25T00:33:42.617Z,100533.25
2023-04-25T00:36:09.620Z,100538.31
2023-04-25T00:38:36.712Z,100546.66
2023-04-25T00:41:03.260Z,100548.53
2023-04-25T00:43:32.306Z,100546.78
2023-04-25T00:46:01.389Z,100543.28
2023-04-25T00:48:27.975Z,100540.00
2023-04-25T00:50:56.112Z,100535.97
2023-04-25T00:53:23.607Z,100537.66
2023-04-25T00:55:52.004Z,100541.63
2023-04-25T00:58:20.861Z,100546.22
2023-04-25T01:00:48.875Z,100538.81
2023-04-25T01:03:18.404Z,100538.09
2023-04-25T01:05:44.891Z,100542.34
2023-04-25T01:08:11.492Z,100527.88
2023-04-25T01:10:38.138Z,100539.88
2023-04-25T01:13:04.951Z,100545.88
2023-04-25T01:15:31.668Z,100541.97
2023-04-25T01:17:59.130Z,100545.50
2023-04-25T01:20:25.972Z,100547.41
2023-04-25T01:22:53.658Z,100549.50
2023-04-25T01:25:20.651Z,100546.81
2023-04-25T01:27:47.607Z,100546.34
2023-04-25T01:30:14.948Z,100544.47
2023-04-25T01:32:42.352Z,100549.63
2023-04-25T01:35:10.699Z,100546.69
2023-04-25T01:37:43.899Z,100540.44
2023-04-25T01:40:11.999Z,100545.88
2023-04-25T01:42:41.914Z,100547.53
2023-04-25T01:45:09.532Z,100547.97
2023-04-25T01:47:36.171Z,100549.97
2023-04-25T01:50:03.795Z,100552.22
2023-04-25T01:52:30.262Z,100557.50
2023-04-25T01:54:58.417Z,100555.72
2023-04-25T01:57:24.768Z,100557.16
2023-04-25T01:59:51.347Z,100566.09
2023-04-25T02:02:17.849Z,100562.81
2023-04-25T02:04:44.482Z,100561.63
2023-04-25T02:07:10.935Z,100560.19
2023-04-25T02:09:37.267Z,100561.63
2023-04-25T02:12:03.801Z,100573.28
2023-04-25T02:14:30.283Z,100569.75
2023-04-25T02:16:56.828Z,100562.09
2023-04-25T02:19:23.471Z,100560.47
2023-04-25T02:21:49.823Z,100563.84
2023-04-25T02:24:16.328Z,100567.72
2023-04-25T02:26:42.723Z,100569.25
2023-04-25T02:29:09.073Z,100567.72
2023-04-25T02:31:35.616Z,100568.28
2023-04-25T02:34:02.001Z,100565.28
2023-04-25T02:36:28.619Z,100556.22
2023-04-25T02:38:55.081Z,100565.25
2023-04-25T02:41:21.756Z,100560.91
2023-04-25T02:43:48.328Z,100562.56
2023-04-25T02:46:15.655Z,100565.72
2023-04-25T02:48:44.434Z,100565.84
2023-04-25T02:51:10.778Z,100559.84
2023-04-25T02:53:37.342Z,100562.06
2023-04-25T02:56:03.907Z,100565.00
2023-04-25T02:58:30.515Z,100564.69
2023-04-25T03:00:56.926Z,100558.78
2023-04-25T03:03:23.395Z,100564.44
2023-04-25T03:05:51.357Z,100563.38
2023-04-25T03:08:19.025Z,100560.19
2023-04-25T03:10:46.289Z,100554.56
2023-04-25T03:13:12.752Z,100561.41
2023-04-25T03:15:39.789Z,100556.00
2023-04-25T03:18:06.160Z,100563.03
2023-04-25T03:20:32.653Z,100563.38
2023-04-25T03:22:59.212Z,100559.97
2023-04-25T03:25:25.627Z,100570.44
2023-04-25T03:27:52.022Z,100566.09
2023-04-25T03:30:18.452Z,100558.06
2023-04-25T03:32:44.855Z,100556.31
2023-04-25T03:35:11.245Z,100546.81
2023-04-25T03:37:37.666Z,100563.25
2023-04-25T03:40:04.977Z,100560.31
2023-04-25T03:42:31.337Z,100558.69
2023-04-25T03:44:57.902Z,100559.97
2023-04-25T03:47:24.322Z,100565.88
2023-04-25T03:49:52.713Z,100568.09
2023-04-25T03:52:19.280Z,100564.69
2023-04-25T03:54:45.623Z,100567.03
2023-04-25T03:57:12.057Z,100566.09
2023-04-25T03:59:38.529Z,100575.84
2023-04-25T04:02:04.976Z,100571.97
2023-04-25T04:04:32.063Z,100574.22
2023-04-25T04:06:58.607Z,100583.13
2023-04-25T04:09:25.177Z,100578.53
2023-04-25T04:11:51.549Z,100582.31
2023-04-25T04:14:17.894Z,100585.63
2023-04-25T04:16:44.250Z,100588.91
2023-04-25T04:19:10.745Z,100585.63
2023-04-25T04:21:37.315Z,100583.50
2023-04-25T04:24:04.271Z,100590.22
2023-04-25T04:26:33.100Z,100592.44
2023-04-25T04:29:00.228Z,100592.56
2023-04-25T04:31:26.740Z,100596.31
2023-04-25T04:33:53.461Z,100599.25
2023-04-25T04:36:23.913Z,100604.31
2023-04-25T04:38:50.423Z,100607.25
2023-04-25T04:41:17.158Z,100606.78
2023-04-25T04:43:44.282Z,100614.06
2023-04-25T04:46:11.314Z,100611.38
2023-04-25T04:48:38.260Z,100619.38
2023-04-25T04:51:04.719Z,100620.88
2023-04-25T04:53:31.139Z,100619.72
2023-04-25T04:55:57.507Z,100624.25
2023-04-25T04:58:24.070Z,100622.13
2023-04-25T05:00:50.735Z,100627.88
2023-04-25T05:03:17.215Z,100630.34
2023-04-25T05:05:43.791Z,100637.50
2023-04-25T05:08:10.267Z,100643.88
2023-04-25T05:10:36.695Z,100643.06
2023-04-25T05:13:03.711Z,100644.59
2023-04-25T05:15:30.828Z,100653.53
2023-04-25T05:17:57.273Z,100648.25
2023-04-25T05:20:23.758Z,100653.97
2023-04-25T05:22:50.232Z,100655.66
2023-04-25T05:25:16.575Z,100656.59
2023-04-25T05:27:42.976Z,100657.63
2023-04-25T05:30:10.526Z,100662.38
2023-04-25T05:32:37.587Z,100661.06
2023-04-25T05:35:04.529Z,100668.00
2023-04-25T05:37:33.805Z,100676.25
2023-04-25T05:40:00.278Z,100675.75
2023-04-25T05:42:26.682Z,100682.25
2023-04-25T05:44:53.159Z,100681.53
2023-04-25T05:47:19.541Z,100680.22
2023-04-25T05:49:46.058Z,100689.53
2023-04-25T05:52:12.359Z,100684.13
2023-04-25T05:54:38.740Z,100689.66
2023-04-25T05:57:05.306Z,100698.38
2023-04-25T05:59:31.667Z,100694.34
2023-04-25T06:01:58.059Z,100694.59
2023-04-25T06:04:24.927Z,100697.56
2023-04-25T06:06:51.666Z,100698.38
2023-04-25T06:09:18.028Z,100703.78
2023-04-25T06:11:44.549Z,100712.00
2023-04-25T06:14:10.969Z,100706.59
2023-04-25T06:16:37.381Z,100720.13
2023-04-25T06:19:03.828Z,100710.13
2023-04-25T06:21:30.160Z,100721.66
2023-04-25T06:23:56.554Z,100709.75
2023-04-25T06:26:23.027Z,100722.34
2023-04-25T06:28:49.402Z,100713.28
2023-04-25T06:31:16.215Z,100706.31
2023-04-25T06:33:42.751Z,100716.69
2023-04-25T06:36:09.151Z,100705.84
2023-04-25T06:38:36.354Z,100707.97
2023-04-25T06:41:03.752Z,100710.66
2023-04-25T06:43:33.955Z,100701.22
2023-04-25T06:46:01.433Z,100711.69
2023-04-25T06:48:28.668Z,100707.28
2023-04-25T06:50:55.640Z,100704.91
2023-04-25T06:53:22.047Z,100703.22
2023-04-25T06:55:48.661Z,100704.72
2023-04-25T06:58:15.322Z,100712.13
2023-04-25T07:00:41.764Z,100711.78
2023-04-25T07:03:10.219Z,100718.06
2023-04-25T07:05:37.042Z,100718.94
2023-04-25T07:08:04.095Z,100721.75
2023-04-25T07:10:30.761Z,100727.59
2023-04-25T07:12:57.174Z,100731.88
2023-04-25T07:15:23.534Z,100734.59
2023-04-25T07:17:49.945Z,100734.47
2023-04-25T07:20:17.084Z,100738.91
2023-04-25T07:22:43.947Z,100744.41
2023-04-25T07:25:11.121Z,100744.91
2023-04-25T07:27:37.566Z,100744.09
2023-04-25T07:30:05.217Z,100748.19
2023-04-25T07:32:31.671Z,100757.31
2023-04-25T07:34:58.053Z,100746.38
2023-04-25T07:37:24.502Z,100758.19
2023-04-25T07:39:50.868Z,100747.34
2023-04-25T07:42:17.212Z,100754.94
2023-04-25T07:44:43.722Z,100761.59
2023-04-25T07:47:11.276Z,100762.34
2023-04-25T07:49:38.287Z,100770.13
2023-04-25T07:52:07.175Z,100768.94
2023-04-25T07:54:33.665Z,100769.63
2023-04-25T07:57:00.643Z,100777.75
2023-04-25T07:59:29.301Z,100771.00
2023-04-25T08:01:58.210Z,100782.13
2023-04-25T08:04:24.884Z,100775.56
2023-04-25T08:06:51.568Z,100782.66
2023-04-25T08:09:18.133Z,100784.47
2023-04-25T08:11:44.738Z,100787.28
2023-04-25T08:14:12.947Z,100800.47
2023-04-25T08:16:39.737Z,100794.78
2023-04-25T08:19:06.803Z,100800.38
2023-04-25T08:21:33.947Z,100802.94
2023-04-25T08:24:00.458Z,100810.09
2023-04-25T08:26:26.916Z,100808.94
2023-04-25T08:28:53.721Z,100810.50
2023-04-25T08:31:20.393Z,100819.06
2023-04-25T08:33:46.910Z,100829.59
2023-04-25T08:36:15.775Z,100823.81
2023-04-25T08:38:43.788Z,100831.75
2023-04-25T08:41:12.651Z,100825.75
2023-04-25T08:43:43.668Z,100834.69
2023-04-25T08:46:10.594Z,100843.88
2023-04-25T08:48:37.240Z,100841.78
2023-04-25T08:53:36.259Z,100862.00
2023-04-25T08:56:03.741Z,100862.25
2023-04-25T08:58:30.342Z,100865.22
2023-04-25T09:00:56.949Z,100872.28
2023-04-25T09:03:23.693Z,100867.34
2023-04-25T09:05:51.146Z,100875.34
2023-04-25T09:08:17.917Z,100880.09
2023-04-25T09:10:44.425Z,100883.38
2023-04-25T09:13:13.910Z,100891.41
2023-04-25T09:15:52.325Z,100882.44
2023-04-25T09:18:30.980Z,100895.56
2023-04-25T09:21:13.797Z,100895.50
2023-04-25T09:23:46.764Z,100899.34
2023-04-25T09:26:18.256Z,100898.72
2023-04-25T09:28:44.977Z,100894.59
2023-04-25T09:31:12.574Z,100896.28
2023-04-25T09:33:40.297Z,100895.81
2023-04-25T09:36:08.786Z,100905.63
2023-04-25T09:38:45.729Z,100905.84
2023-04-25T09:41:12.749Z,100909.56
2023-04-25T09:43:40.426Z,100910.28
2023-04-25T09:46:12.510Z,100908.00
2023-04-25T09:48:39.039Z,100913.44
2023-04-25T09:51:08.318Z,100919.69
2023-04-25T09:53:43.310Z,100920.16
2023-04-25T09:56:11.735Z,100921.00
2023-04-25T09:58:40.066Z,100925.09
2023-04-25T10:01:11.399Z,100926.44
2023-04-25T10:03:43.400Z,100923.88
2023-04-25T10:06:18.531Z,100915.91
2023-04-25T10:08:45.842Z,100916.72
2023-04-25T10:11:15.327Z,100923.28
2023-04-25T10:13:42.655Z,100932.50
2023-04-25T10:16:08.990Z,100938.63
2023-04-25T10:18:35.570Z,100929.59
2023-04-25T10:21:05.573Z,100937.94
2023-04-25T10:23:32.732Z,100941.72
2023-04-25T10:26:01.009Z,100942.41
2023-04-25T10:28:27.661Z,100940.38
2023-04-25T10:31:04.798Z,100938.47
2023-04-25T10:33:38.832Z,100943.16
2023-04-25T10:36:18.026Z,100938.47
2023-04-25T10:38:45.872Z,100946.72
2023-04-25T10:41:13.279Z,100947.53
2023-04-25T10:43:47.129Z,100953.44
2023-04-25T10:46:24.321Z,100945.84
2023-04-25T10:48:51.791Z,100951.09
2023-04-25T10:51:37.197Z,100954.13
2023-04-25T10:54:10.169Z,100951.84
2023-04-25T10:56:42.829Z,100948.44
2023-04-25T10:59:17.378Z,100947.53
2023-04-25T11:01:46.398Z,100953.03
2023-04-25T11:04:22.816Z,100955.19
2023-04-25T11:07:11.037Z,100958.22
2023-04-25T11:09:41.056Z,100952.81
2023-04-25T11:12:12.688Z,100951.31
2023-04-25T11:17:12.050Z,100966.31
2023-04-25T11:19:38.677Z,100957.19
2023-04-25T11:22:05.001Z,100953.63
2023-04-25T11:24:35.932Z,100960.41
2023-04-25T11:27:04.938Z,100956.00
2023-04-25T11:29:33.311Z,100957.59
2023-04-25T11:32:01.107Z,100953.09
2023-04-25T11:34:32.123Z,100950.97
2023-04-25T11:36:59.384Z,100957.41
2023-04-25T11:39:26.713Z,100957.88
2023-04-25T11:41:54.015Z,100950.00
2023-04-25T11:44:21.398Z,100957.41
2023-04-25T11:46:48.466Z,100955.25
2023-04-25T11:49:16.225Z,100958.09
2023-04-25T11:51:44.350Z,100961.38
2023-04-25T11:54:12.752Z,100960.19
2023-04-25T11:56:45.783Z,100959.03
2023-04-25T11:59:13.217Z,100959.47
2023-04-25T12:01:49.524Z,100964.66
2023-04-25T12:04:21.762Z,100957.66
2023-04-25T12:06:50.817Z,100961.72
2023-04-25T12:09:20.093Z,100958.47
2023-04-25T12:11:54.240Z,100966.81
2023-04-25T12:14:28.614Z,100964.75
2023-04-25T12:17:03.597Z,100967.75
2023-04-25T12:19:34.630Z,100960.97
2023-04-25T12:22:01.855Z,100967.88
2023-04-25T12:24:29.054Z,100958.19
2023-04-25T12:27:07.332Z,100974.44
2023-04-25T12:29:48.648Z,100961.06
2023-04-25T12:32:16.593Z,100978.38
2023-04-25T12:34:43.409Z,100970.66
2023-04-25T12:37:10.164Z,100986.09
2023-04-25T12:39:36.463Z,100981.91
2023-04-25T12:42:03.343Z,100984.06
2023-04-25T12:44:29.879Z,100982.69
2023-04-25T12:46:56.473Z,100985.66
2023-04-25T12:49:23.328Z,100986.38
2023-04-25T12:51:49.759Z,100987.91
2023-04-25T12:54:16.228Z,100994.22
2023-04-25T12:56:43.170Z,100999.56
2023-04-25T12:59:10.485Z,100997.31
2023-04-25T13:01:37.442Z,101001.50
2023-04-25T13:04:04.347Z,101003.00
2023-04-25T13:06:31.790Z,101000.78
2023-04-25T13:08:58.267Z,101011.19
2023-04-25T13:11:24.961Z,101014.63
2023-04-25T13:13:51.454Z,101018.34
2023-04-25T13:16:18.530Z,101016.88
2023-04-25T13:18:45.066Z,101022.47
2023-04-25T13:21:14.364Z,101013.03
2023-04-25T13:23:41.605Z,101019.13
2023-04-25T13:26:07.907Z,101015.00
2023-04-25T13:28:34.340Z,101010.75
2023-04-25T13:31:00.881Z,101018.06
2023-04-25T13:33:27.407Z,101009.03
2023-04-25T13:35:58.177Z,101014.50
2023-04-25T13:38:26.625Z,101014.88
2023-04-25T13:40:53.720Z,101017.38
2023-04-25T13:43:23.719Z,101016.34
2023-04-25T13:45:51.262Z,101011.06
2023-04-25T13:48:19.265Z,101022.75
2023-04-25T13:50:46.051Z,101022.81
2023-04-25T13:53:12.965Z,101026.91
2023-04-25T13:55:39.943Z,101024.13
2023-04-25T13:58:08.855Z,101025.34
2023-04-25T14:00:40.370Z,101022.59
2023-04-25T14:03:10.478Z,101013.97
2023-04-25T14:05:38.928Z,101020.28
2023-04-25T14:08:09.510Z,101024.84
2023-04-25T14:10:36.469Z,101009.19
2023-04-25T14:13:04.168Z,101012.03
2023-04-25T14:15:32.970Z,101006.00
2023-04-25T14:18:00.215Z,101006.44
2023-04-25T14:20:27.301Z,101012.00
2023-04-25T14:22:55.522Z,101019.22
2023-04-25T14:25:22.190Z,101022.13
2023-04-25T14:27:50.716Z,101022.28
2023-04-25T14:30:22.130Z,101019.03
2023-04-25T14:32:51.575Z,101016.88
2023-04-25T14:35:18.711Z,101016.47
2023-04-25T14:37:46.411Z,101021.22
2023-04-25T14:40:16.108Z,101020.91
2023-04-25T14:42:42.484Z,101025.41
2023-04-25T14:45:09.669Z,101015.19
2023-04-25T14:47:39.444Z,101014.22
2023-04-25T14:50:09.654Z,101024.66
2023-04-25T14:52:36.237Z,101034.16
2023-04-25T14:55:06.472Z,101030.03
2023-04-25T14:57:36.298Z,101029.44
2023-04-25T15:00:06.050Z,101034.75
2023-04-25T15:02:32.571Z,101037.09
2023-04-25T15:04:59.411Z,101042.56
2023-04-25T15:07:26.814Z,101032.41
2023-04-25T15:09:54.337Z,101038.91
2023-04-25T15:12:21.393Z,101032.88
2023-04-25T15:14:47.964Z,101037.50
2023-04-25T15:17:15.164Z,101047.56
2023-04-25T15:19:41.553Z,101041.75
2023-04-25T15:22:08.041Z,101045.13
2023-04-25T15:24:34.434Z,101049.06
2023-04-25T15:27:00.812Z,101041.22
2023-04-25T15:29:28.184Z,101044.84
2023-04-25T15:31:54.697Z,101045.44
2023-04-25T15:34:21.275Z,101037.78
2023-04-25T15:36:47.712Z,101031.78
2023-04-25T15:39:14.160Z,101041.78
2023-04-25T15:41:40.621Z,101045.03
2023-04-25T15:44:07.896Z,101046.94
2023-04-25T15:46:34.338Z,101047.72
2023-04-25T15:49:00.966Z,101045.84
2023-04-25T15:51:28.136Z,101051.63
2023-04-25T15:53:54.691Z,101049.72
2023-04-25T15:56:21.405Z,101056.72
2023-04-25T15:58:48.311Z,101054.03
2023-04-25T16:01:14.956Z,101050.88
2023-04-25T16:03:41.566Z,101053.16
2023-04-25T16:06:08.140Z,101047.38
2023-04-25T16:08:35.735Z,101055.56
2023-04-25T16:11:03.156Z,101048.59
2023-04-25T16:13:30.317Z,101053.47
2023-04-25T16:15:56.814Z,101061.03
2023-04-25T16:18:23.344Z,101059.38
2023-04-25T16:20:49.993Z,101056.75
2023-04-25T16:23:16.369Z,101066.19
2023-04-25T16:25:43.194Z,101067.19
2023-04-25T16:28:09.779Z,101058.59
2023-04-25T16:30:36.167Z,101064.34
2023-04-25T16:33:02.652Z,101066.59
2023-04-25T16:35:32.363Z,101067.09
2023-04-25T16:37:58.813Z,101061.38
2023-04-25T16:40:25.327Z,101062.34
2023-04-25T16:42:51.688Z,101067.41
2023-04-25T16:45:20.111Z,101068.31
2023-04-25T16:47:46.651Z,101067.84
2023-04-25T16:50:14.447Z,101067.63
2023-04-25T16:52:41.887Z,101073.34
2023-04-25T16:55:09.252Z,101062.94
2023-04-25T16:57:38.597Z,101067.16
2023-04-25T17:00:06.920Z,101076.31
2023-04-25T17:02:33.593Z,101069.22
2023-04-25T17:05:00.016Z,101069.06
2023-04-25T17:07:26.725Z,101071.84
2023-04-25T17:09:53.210Z,101075.00
2023-04-25T17:12:19.919Z,101075.31
2023-04-25T17:14:46.691Z,101077.00
2023-04-25T17:17:13.489Z,101067.91
2023-04-25T17:19:39.901Z,101074.00
2023-04-25T17:22:07.206Z,101079.31
2023-04-25T17:24:33.665Z,101082.03
2023-04-25T17:27:00.034Z,101085.47
2023-04-25T17:29:27.932Z,101082.75
2023-04-25T17:31:54.448Z,101084.91
2023-04-25T17:34:21.364Z,101079.59
2023-04-25T17:36:48.421Z,101090.25
2023-04-25T17:39:17.082Z,101094.91
2023-04-25T17:41:44.444Z,101090.38
2023-04-25T17:44:10.842Z,101099.97
2023-04-25T17:46:37.512Z,101100.09
2023-04-25T17:49:04.007Z,101107.78
2023-04-25T17:51:31.457Z,101101.94
2023-04-25T17:53:57.896Z,101111.06
2023-04-25T17:56:27.154Z,101110.34
2023-04-25T17:58:54.068Z,101120.66
2023-04-25T18:01:20.870Z,101115.41
2023-04-25T18:03:49.829Z,101107.53
2023-04-25T18:06:16.981Z,101119.03
2023-04-25T18:08:44.515Z,101112.38
2023-04-25T18:11:10.940Z,101124.19
2023-04-25T18:13:38.578Z,101136.63
2023-04-25T18:16:05.420Z,101133.44
2023-04-25T18:18:34.257Z,101138.47
2023-04-25T18:21:03.867Z,101138.34
2023-04-25T18:23:32.331Z,101143.72
2023-04-25T18:25:58.772Z,101151.03
2023-04-25T18:28:25.341Z,101158.84
2023-04-25T18:30:51.779Z,101154.34
2023-04-25T18:33:18.198Z,101156.75
2023-04-25T18:35:51.706Z,101159.72
2023-04-25T18:38:35.683Z,101162.31
2023-04-25T18:41:20.648Z,101172.81
2023-04-25T18:43:49.770Z,101164.47
2023-04-25T18:46:17.461Z,101174.88
2023-04-25T18:48:43.948Z,101179.97
2023-04-25T18:51:10.555Z,101181.16
2023-04-25T18:53:37.388Z,101191.88
2023-04-25T18:56:04.652Z,101183.63
2023-04-25T18:58:30.988Z,101193.41
2023-04-25T19:00:57.407Z,101190.25
2023-04-25T19:03:24.340Z,101194.28
2023-04-25T19:05:50.818Z,101198.97
2023-04-25T19:08:17.777Z,101208.44
2023-04-25T19:10:44.588Z,101205.50
2023-04-25T19:13:11.047Z,101214.22
2023-04-25T19:15:37.835Z,101216.00
2023-04-25T19:18:04.852Z,101219.75
2023-04-25T19:20:33.210Z,101213.88
2023-04-25T19:22:59.572Z,101224.25
2023-04-25T19:25:26.337Z,101220.69
2023-04-25T19:27:52.981Z,101219.28
2023-04-25T19:30:19.842Z,101224.13
2023-04-25T19:32:46.382Z,101226.34
2023-04-25T19:35:13.425Z,101226.09
2023-04-25T19:37:45.821Z,101232.25
2023-04-25T19:40:16.548Z,101217.81
2023-04-25T19:42:43.793Z,101226.84
2023-04-25T19:45:11.432Z,101234.50
2023-04-25T19:47:38.342Z,101238.75
2023-04-25T19:50:08.614Z,101238.59
2023-04-25T19:52:35.892Z,101245.75
2023-04-25T19:55:04.714Z,101240.66
2023-04-25T19:57:34.965Z,101239.69
2023-04-25T20:00:04.874Z,101247.75
2023-04-25T20:02:31.544Z,101242.06
2023-04-25T20:04:58.040Z,101252.00
2023-04-25T20:07:24.650Z,101258.72
2023-04-25T20:09:51.011Z,101249.97
2023-04-25T20:12:18.076Z,101251.28
2023-04-25T20:14:45.020Z,101261.66
2023-04-25T20:17:11.987Z,101261.44
2023-04-25T20:19:39.161Z,101255.16
2023-04-25T20:22:06.246Z,101260.75
2023-04-25T20:24:32.775Z,101267.53
2023-04-25T20:26:59.214Z,101265.41
2023-04-25T20:29:26.404Z,101279.44
2023-04-25T20:31:53.864Z,101276.56
2023-04-25T20:34:21.601Z,101275.34
2023-04-25T20:36:51.316Z,101275.56
2023-04-25T20:39:17.726Z,101275.56
2023-04-25T20:41:47.357Z,101266.00
2023-04-25T20:44:13.921Z,101271.28
2023-04-25T20:46:40.618Z,101277.94
2023-04-25T20:49:07.667Z,101275.66
2023-04-25T20:51:37.085Z,101276.94
2023-04-25T20:54:06.947Z,101280.16
2023-04-25T20:56:35.725Z,101280.16
2023-04-25T20:59:02.085Z,101276.84
2023-04-25T21:01:28.969Z,101282.88
2023-04-25T21:03:55.638Z,101273.06
2023-04-25T21:06:22.190Z,101286.28
2023-04-25T21:08:48.854Z,101279.16
2023-04-25T21:11:15.383Z,101281.09
2023-04-25T21:13:41.777Z,101292.78
2023-04-25T21:16:08.282Z,101288.63
2023-04-25T21:18:34.796Z,101289.69
2023-04-25T21:21:05.179Z,101293.63
2023-04-25T21:23:32.193Z,101291.19
2023-04-25T21:25:58.583Z,101299.13
2023-04-25T21:28:25.063Z,101294.38
2023-04-25T21:30:51.698Z,101300.41
2023-04-25T21:33:18.773Z,101299.84
2023-04-25T21:35:45.966Z,101308.41
2023-04-25T21:38:12.763Z,101311.13
2023-04-25T21:40:40.134Z,101303.47
2023-04-25T21:43:06.553Z,101318.53
2023-04-25T21:45:33.137Z,101322.34
2023-04-25T21:47:59.603Z,101327.56
2023-04-25T21:50:26.017Z,101325.25
2023-04-25T21:52:54.128Z,101323.63
2023-04-25T21:55:22.010Z,101317.41
2023-04-25T21:57:48.410Z,101315.16
2023-04-25T22:00:22.123Z,101319.09
2023-04-25T22:02:48.638Z,101318.63
2023-04-25T22:05:15.338Z,101326.41
2023-04-25T22:07:42.476Z,101324.13
2023-04-25T22:10:09.333Z,101334.56
2023-04-25T22:12:35.711Z,101327.91
2023-04-25T22:15:03.321Z,101327.94
2023-04-25T22:17:31.189Z,101332.09
2023-04-25T22:19:57.880Z,101335.22
2023-04-25T22:22:24.482Z,101329.25
2023-04-25T22:24:51.467Z,101336.72
2023-04-25T22:27:18.416Z,101344.22
2023-04-25T22:29:44.858Z,101346.28
2023-04-25T22:32:11.193Z,101348.38
2023-04-25T22:34:37.654Z,101350.91
2023-04-25T22:37:04.711Z,101352.38
2023-04-25T22:39:31.096Z,101362.38
2023-04-25T22:41:58.320Z,101359.50
2023-04-25T22:44:24.751Z,101366.94
2023-04-25T22:46:51.086Z,101364.25
2023-04-25T22:49:17.439Z,101369.47
2023-04-25T22:51:44.006Z,101371.75
2023-04-25T22:54:10.367Z,101370.31
2023-04-25T22:56:37.748Z,101376.75
2023-04-25T22:59:04.777Z,101380.69
2023-04-25T23:01:31.461Z,101378.84
2023-04-25T23:03:58.460Z,101378.59
2023-04-25T23:06:25.093Z,101387.75
2023-04-25T23:08:51.597Z,101380.94
2023-04-25T23:11:18.134Z,101380.31
2023-04-25T23:13:45.439Z,101385.09
2023-04-25T23:16:12.689Z,101376.34
2023-04-25T23:18:40.836Z,101372.63
2023-04-25T23:21:09.119Z,101387.81
2023-04-25T23:23:36.412Z,101381.16
2023-04-25T23:26:10.153Z,101377.41
2023-04-25T23:28:41.973Z,101379.47
2023-04-25T23:31:10.338Z,101390.69
2023-04-25T23:33:36.904Z,101380.28
2023-04-25T23:36:03.602Z,101380.91
2023-04-25T23:38:29.956Z,101386.31
2023-04-25T23:40:56.303Z,101389.00
2023-04-25T23:43:22.799Z,101392.94
2023-04-25T23:45:49.378Z,101388.78
2023-04-25T23:48:15.897Z,101393.31
2023-04-25T23:50:42.482Z,101392.88
2023-04-25T23:53:09.486Z,101391.84
2023-04-25T23:55:36.129Z,101395.38
2023-04-25T23:58:03.569Z,101393.25
